createdAt,value
2023-01-10T00:01:56.713Z,99690.25
2023-01-10T00:06:53.531Z,99709.22
2023-01-10T00:12:08.597Z,99715.84
2023-01-10T00:17:04.962Z,99731.09
2023-01-10T00:22:05.690Z,99730.53
2023-01-10T00:27:03.483Z,99744.03
2023-01-10T00:31:59.863Z,99755.78
2023-01-10T00:36:56.328Z,99776.44
2023-01-10T00:42:11.514Z,99774.75
2023-01-10T00:47:07.978Z,99804.81
2023-01-10T00:52:05.127Z,99806.66
2023-01-10T00:57:01.520Z,99819.06
2023-01-10T01:01:57.928Z,99830.72
2023-01-10T01:06:54.325Z,99840.22
2023-01-10T01:11:50.697Z,99845.28
2023-01-10T01:16:47.096Z,99862.72
2023-01-10T01:21:43.501Z,99879.28
2023-01-10T01:26:42.006Z,99891.31
2023-01-10T01:31:38.358Z,99896.22
2023-01-10T01:36:34.805Z,99895.22
2023-01-10T01:41:49.704Z,99904.94
2023-01-10T01:47:04.261Z,99922.63
2023-01-10T01:52:08.734Z,99941.41
2023-01-10T01:57:15.881Z,99951.41
2023-01-10T02:02:48.290Z,99967.63
2023-01-10T02:07:56.506Z,99972.16
2023-01-10T02:12:54.676Z,99982.91
2023-01-10T02:17:52.751Z,99993.81
2023-01-10T02:23:04.432Z,99997.59
2023-01-10T02:28:10.949Z,100002.66
2023-01-10T02:33:13.398Z,100006.81
2023-01-10T02:38:36.019Z,100010.41
2023-01-10T02:43:39.676Z,100013.91
2023-01-10T02:48:36.017Z,100018.34
2023-01-10T02:53:46.855Z,100021.91
2023-01-10T02:59:09.244Z,100022.97
2023-01-10T03:04:45.519Z,100023.13
2023-01-10T03:09:55.180Z,100034.53
2023-01-10T03:14:53.202Z,100035.38
2023-01-10T03:19:52.257Z,100030.00
2023-01-10T03:24:51.632Z,100041.50
2023-01-10T03:29:56.945Z,100049.41
2023-01-10T03:34:54.626Z,100055.63
2023-01-10T03:40:00.115Z,100073.50
2023-01-10T03:45:08.883Z,100092.72
2023-01-10T03:50:07.763Z,100091.69
2023-01-10T03:55:05.634Z,100101.38
2023-01-10T04:00:04.701Z,100110.25
2023-01-10T04:05:01.040Z,100119.50
2023-01-10T04:09:57.595Z,100120.31
2023-01-10T04:14:54.093Z,100133.22
2023-01-10T04:19:50.479Z,100145.75
2023-01-10T04:24:48.673Z,100144.34
2023-01-10T04:29:45.096Z,100155.91
2023-01-10T04:34:41.481Z,100158.47
2023-01-10T04:39:37.869Z,100164.84
2023-01-10T04:44:34.164Z,100160.50
2023-01-10T04:49:31.128Z,100161.53
2023-01-10T04:54:27.487Z,100175.59
2023-01-10T04:59:24.067Z,100169.06
2023-01-10T05:04:21.057Z,100181.25
2023-01-10T05:09:17.562Z,100190.75
2023-01-10T05:14:13.987Z,100197.06
2023-01-10T05:19:10.492Z,100209.28
2023-01-10T05:24:07.381Z,100220.88
2023-01-10T05:29:04.551Z,100222.84
2023-01-10T05:34:01.137Z,100230.84
2023-01-10T05:38:57.980Z,100238.84
2023-01-10T05:43:54.358Z,100250.59
2023-01-10T05:48:52.666Z,100252.63
2023-01-10T05:53:50.300Z,100261.38
2023-01-10T05:58:51.376Z,100261.56
2023-01-10T06:03:50.374Z,100273.81
2023-01-10T06:08:46.692Z,100284.19
2023-01-10T06:13:43.063Z,100280.50
2023-01-10T06:18:39.420Z,100282.03
2023-01-10T06:23:36.029Z,100292.50
2023-01-10T06:28:32.391Z,100294.03
2023-01-10T06:33:28.724Z,100303.72
2023-01-10T06:38:25.113Z,100315.88
2023-01-10T06:43:21.612Z,100326.28
2023-01-10T06:48:18.071Z,100329.84
2023-01-10T06:53:14.477Z,100346.78
2023-01-10T06:58:10.841Z,100345.06
2023-01-10T07:03:07.984Z,100351.19
2023-01-10T07:08:04.572Z,100361.38
2023-01-10T07:13:01.122Z,100359.72
2023-01-10T07:17:58.773Z,100372.78
2023-01-10T07:22:57.275Z,100370.81
2023-01-10T07:27:57.106Z,100383.00
2023-01-10T07:32:57.121Z,100400.69
2023-01-10T07:37:53.488Z,100406.75
2023-01-10T07:42:50.031Z,100396.94
2023-01-10T07:47:46.406Z,100406.56
2023-01-10T07:52:42.753Z,100424.53
2023-01-10T07:57:39.147Z,100412.94
2023-01-10T08:02:35.723Z,100410.31
2023-01-10T08:07:32.250Z,100424.16
2023-01-10T08:12:28.620Z,100426.72
2023-01-10T08:17:25.432Z,100441.03
2023-01-10T08:22:21.790Z,100440.50
2023-01-10T08:27:18.126Z,100448.69
2023-01-10T08:32:14.477Z,100460.06
2023-01-10T08:37:14.017Z,100458.28
2023-01-10T08:42:10.821Z,100471.41
2023-01-10T08:47:07.168Z,100467.59
2023-01-10T08:52:03.637Z,100467.41
2023-01-10T08:57:00.026Z,100469.63
2023-01-10T09:01:58.516Z,100472.88
2023-01-10T09:06:55.741Z,100476.25
2023-01-10T09:11:52.079Z,100477.09
2023-01-10T09:16:51.658Z,100493.00
2023-01-10T09:21:48.079Z,100488.16
2023-01-10T09:26:44.930Z,100481.34
2023-01-10T09:31:41.388Z,100484.50
2023-01-10T09:36:37.749Z,100478.19
2023-01-10T09:41:58.638Z,100492.25
2023-01-10T09:47:22.749Z,100513.38
2023-01-10T09:52:28.329Z,100527.25
2023-01-10T09:57:25.404Z,100519.13
2023-01-10T10:02:35.851Z,100531.22
2023-01-10T10:07:32.276Z,100528.16
2023-01-10T10:12:44.116Z,100532.06
2023-01-10T10:17:43.581Z,100534.97
2023-01-10T10:22:53.825Z,100531.56
2023-01-10T10:28:31.819Z,100527.53
2023-01-10T10:33:49.024Z,100528.66
2023-01-10T10:38:48.440Z,100513.66
2023-01-10T10:43:47.976Z,100511.69
2023-01-10T10:48:56.745Z,100514.19
2023-01-10T10:53:54.379Z,100524.06
2023-01-10T10:58:55.603Z,100523.53
2023-01-10T11:03:59.777Z,100521.84
2023-01-10T11:09:04.047Z,100520.44
2023-01-10T11:14:05.662Z,100511.50
2023-01-10T11:19:10.813Z,100500.78
2023-01-10T11:24:21.593Z,100502.47
2023-01-10T11:29:24.376Z,100501.00
2023-01-10T11:34:28.621Z,100501.25
2023-01-10T11:39:26.919Z,100493.72
2023-01-10T11:44:24.699Z,100498.16
2023-01-10T11:49:30.850Z,100495.03
2023-01-10T11:54:29.896Z,100488.22
2023-01-10T11:59:27.760Z,100490.50
2023-01-10T12:04:27.485Z,100487.88
2023-01-10T12:09:39.560Z,100480.22
2023-01-10T12:14:36.028Z,100486.53
2023-01-10T12:19:32.826Z,100492.19
2023-01-10T12:24:35.892Z,100486.53
2023-01-10T12:30:01.044Z,100493.53
2023-01-10T12:35:03.825Z,100491.81
2023-01-10T12:40:12.996Z,100501.56
2023-01-10T12:45:33.460Z,100491.22
2023-01-10T12:50:37.068Z,100485.19
2023-01-10T12:55:43.558Z,100484.84
2023-01-10T13:00:48.540Z,100482.09
2023-01-10T13:05:48.646Z,100475.13
2023-01-10T13:10:47.591Z,100469.72
2023-01-10T13:15:54.284Z,100464.22
2023-01-10T13:21:03.306Z,100453.00
2023-01-10T13:26:04.686Z,100453.78
2023-01-10T13:31:04.118Z,100448.75
2023-01-10T13:36:23.589Z,100446.13
2023-01-10T13:41:39.212Z,100432.13
2023-01-10T13:46:47.357Z,100428.84
2023-01-10T13:52:22.289Z,100429.56
2023-01-10T13:57:50.969Z,100436.38
2023-01-10T14:02:47.475Z,100429.97
2023-01-10T14:07:57.658Z,100420.81
2023-01-10T14:12:57.144Z,100421.25
2023-01-10T14:17:58.534Z,100414.75
2023-01-10T14:23:19.995Z,100418.06
2023-01-10T14:28:22.621Z,100404.47
2023-01-10T14:33:22.752Z,100404.00
2023-01-10T14:38:32.379Z,100396.66
2023-01-10T14:43:37.840Z,100391.53
2023-01-10T14:48:40.375Z,100384.38
2023-01-10T14:53:36.720Z,100387.28
2023-01-10T14:58:33.102Z,100378.88
2023-01-10T15:03:29.543Z,100362.50
2023-01-10T15:08:28.584Z,100361.00
2023-01-10T15:13:28.271Z,100358.81
2023-01-10T15:18:39.332Z,100358.66
2023-01-10T15:23:37.235Z,100343.94
2023-01-10T15:28:35.895Z,100337.69
2023-01-10T15:33:33.152Z,100339.59
2023-01-10T15:38:34.159Z,100334.31
2023-01-10T15:43:32.313Z,100329.56
2023-01-10T15:48:36.059Z,100324.59
2023-01-10T15:53:57.229Z,100305.91
2023-01-10T15:58:54.762Z,100305.53
2023-01-10T16:03:53.714Z,100290.53
2023-01-10T16:08:53.058Z,100285.81
2023-01-10T16:13:49.497Z,100287.72
2023-01-10T16:18:45.864Z,100279.97
2023-01-10T16:23:44.263Z,100262.16
2023-01-10T16:28:40.958Z,100264.13
2023-01-10T16:33:37.721Z,100246.59
2023-01-10T16:38:35.019Z,100235.63
2023-01-10T16:43:31.368Z,100231.75
2023-01-10T16:48:29.636Z,100223.75
2023-01-10T16:53:26.013Z,100228.09
2023-01-10T16:58:22.420Z,100228.09
2023-01-10T17:03:22.077Z,100221.19
2023-01-10T17:08:23.838Z,100205.47
2023-01-10T17:13:27.412Z,100200.91
2023-01-10T17:18:25.868Z,100194.91
2023-01-10T17:23:23.121Z,100202.53
2023-01-10T17:28:19.783Z,100199.25
2023-01-10T17:33:16.104Z,100201.69
2023-01-10T17:38:15.219Z,100196.19
2023-01-10T17:43:12.997Z,100196.19
2023-01-10T17:48:12.729Z,100183.84
2023-01-10T17:53:09.494Z,100171.69
2023-01-10T17:58:05.828Z,100155.00
2023-01-10T18:03:02.185Z,100147.53
2023-01-10T18:08:01.063Z,100118.28
2023-01-10T18:12:57.998Z,100118.06
2023-01-10T18:17:54.395Z,100107.06
2023-01-10T18:23:09.203Z,100091.84
2023-01-10T18:28:05.532Z,100081.50
2023-01-10T18:33:01.955Z,100073.38
2023-01-10T18:37:58.871Z,100071.19
2023-01-10T18:42:56.028Z,100071.84
2023-01-10T18:47:58.937Z,100058.44
2023-01-10T18:52:55.261Z,100053.78
2023-01-10T18:57:51.583Z,100044.59
2023-01-10T19:02:48.086Z,100048.91
2023-01-10T19:07:44.582Z,100051.00
2023-01-10T19:12:42.315Z,100040.19
2023-01-10T19:17:38.833Z,100033.19
2023-01-10T19:22:35.202Z,100013.34
2023-01-10T19:27:31.599Z,100018.81
2023-01-10T19:32:28.667Z,100006.19
2023-01-10T19:37:25.061Z,100003.13
2023-01-10T19:42:21.405Z,99996.34
2023-01-10T19:47:18.188Z,99986.72
2023-01-10T19:52:14.619Z,99981.94
2023-01-10T19:57:10.976Z,99973.47
2023-01-10T20:02:12.834Z,99969.13
2023-01-10T20:07:09.304Z,99964.59
2023-01-10T20:12:05.925Z,99961.91
2023-01-10T20:17:02.338Z,99960.09
2023-01-10T20:21:58.708Z,99940.22
2023-01-10T20:26:55.095Z,99934.78
2023-01-10T20:31:55.729Z,99922.03
2023-01-10T20:36:52.463Z,99918.63
2023-01-10T20:41:48.972Z,99915.81
2023-01-10T20:46:45.433Z,99907.16
2023-01-10T20:51:41.900Z,99893.03
2023-01-10T20:56:38.851Z,99885.66
2023-01-10T21:01:36.075Z,99878.69
2023-01-10T21:06:34.083Z,99875.75
2023-01-10T21:11:30.495Z,99880.63
2023-01-10T21:16:26.991Z,99868.06
2023-01-10T21:21:23.618Z,99867.19
2023-01-10T21:26:20.029Z,99865.63
2023-01-10T21:31:18.933Z,99842.28
2023-01-10T21:36:15.405Z,99838.31
2023-01-10T21:41:36.507Z,99838.81
2023-01-10T21:46:33.201Z,99833.13
2023-01-10T21:51:29.750Z,99837.25
2023-01-10T21:56:26.167Z,99827.31
2023-01-10T22:01:22.571Z,99819.94
2023-01-10T22:06:18.968Z,99814.31
2023-01-10T22:11:15.352Z,99812.41
2023-01-10T22:16:13.861Z,99799.53
2023-01-10T22:21:10.279Z,99802.81
2023-01-10T22:26:13.611Z,99794.34
2023-01-10T22:31:10.068Z,99785.78
2023-01-10T22:36:09.853Z,99775.53
2023-01-10T22:41:07.497Z,99771.41
2023-01-10T22:46:04.892Z,99758.81
2023-01-10T22:51:01.575Z,99748.97
2023-01-10T22:56:05.538Z,99752.94
2023-01-10T23:01:06.204Z,99753.94
2023-01-10T23:06:02.601Z,99734.78
2023-01-10T23:11:00.086Z,99738.16
2023-01-10T23:16:01.164Z,99733.59
2023-01-10T23:20:58.079Z,99704.06
2023-01-10T23:26:03.637Z,99704.81
2023-01-10T23:31:00.107Z,99705.28
2023-01-10T23:35:56.566Z,99711.09
2023-01-10T23:40:53.041Z,99702.81
2023-01-10T23:45:49.855Z,99701.97
2023-01-10T23:50:50.082Z,99699.06
2023-01-10T23:55:46.682Z,99710.44
